Rocky Mount, VA

4:46 AM EST on December 21, 2014 (GMT -0500)
Reidsville | Change Station
CLOSE
Current Station
Airport
Location: Reidsville,
Elevation: 692 ft
Nearby Weather Stations

Elev 692 ft 36.44 °N, 79.85 °W | Updated 11 minutes ago

Overcast
Overcast
37 °F
Feels Like 37 °F
N
0
Wind Variable Wind from North

Today
High -- | Low -- °F
--% Chance of Precip.
Yesterday
High -- | Low -- °F
Precip. -- in
7:29 AM 5:06 PM
Waning Crescent, 1% visible
Pressure 30.25 in
Visibility 7.0 miles
Clouds Overcast 6000 ft
Dew Point 35 °F
Humidity 92%
Rainfall 0.00 in
Snow Depth Not available.
UV 0 out of 12
Pollen .10 out of 12
Air Quality Not available.
Flu Activity Not available.
METAR KSIF 210935Z AUTO 00000KT 7SM OVC060 03/02 A3025 RMK AO2 T00270015

More Conditions Fewer Conditions

Pressure 30.25 in
Visibility 7.0 miles
Clouds Overcast 6000 ft
Dew Point 35 °F
Humidity 92%
Rainfall 0.00 in
Snow Depth Not available.
UV 0 out of 12
Pollen .10 out of 12
Air Quality Not available.
Flu Activity Not available.
METAR KSIF 210935Z AUTO 00000KT 7SM OVC060 03/02 A3025 RMK AO2 T00270015

More Conditions Fewer Conditions

10-Day Weather Forecast

Almanac

Astronomy

Dec. 21, 2014 Rise Set
Actual Time
Civil Twilight
Nautical Twilight
Astronomical Twilight
Moon
Length of Visible Light
Length of Day
Tomorrow will be .
, % of the Moon is Illuminated

Today's Extremes

State Highs State Lows

Community

WunderPhotos

Upload Photos

1,779,364 photos uploaded!

WunderBlogs® & News

Nearby

Air Quality

  Air Quality AQ Index Pollutant
Not available.

Snow Depth

Station Depth Elevation

Earthquake Activity

City Distance Mag. Time & Date
Minimum magnitude displayed is 2.5.

Coastal Water Temperatures

Place Temperature

Nearby Weather Stations